メインページ
METAR-TAF:

METAR-TAF

空港 :

バッファロー・ナイアガラ国際空港

バッファロー, ニューヨーク, アメリカ合衆国

緯度: 42-56-27N, 経度: 078-44-09W, 海抜: 220m

現時点の気象観測

当レポートは17分前の05:54(UTC)に作成
西/南西の風 3kt
気温 5°C
湿度 93%
気圧 1016 hPa
視程: 3.2km
高度200ftの曇り
小霧雨, 靄

METAR: KBUF 040554Z 25003KT 2SM -DZ BR OVC002 05/04 A3001 RMK AO2 SLP167 P0000 60006 T00500044 10056 20050 58005

時間: 02:11 (06:11 UTC)

予報

当レポートは33分前の05:38(UTC)に作成
予報は04日の 06時(UTC)から 05日の 06時(UTC)まで有効
変向風 3kt
視程: 2.4km
高度300ftの曇り
小霧雨, 靄
04日の 1000時(UTC)から
変向風 3kt
視程: 1.6km
高度400ftの曇り
04日の 1500時(UTC)から
の風 kt
視程: 10km
高度700ftの曇り
04日の 1700時(UTC)から
変向風 3kt
視程: 10km
高度1200ftの千切れ雲あり
04日の 2300時(UTC)から
変向風 3kt
視程: 10km
高度3000ftの雲は散在している
05日の 0200時(UTC)から
の風 kt
視程: 10km
高度6000ftの千切れ雲あり

TAF: KBUF 040538Z 0406/0506 VRB03KT 1 1/2SM -DZ BR OVC003 FM041000 VRB03KT 2SM BR OVC004 FM041500 00000KT P6SM OVC007 FM041700 VRB03KT P6SM BKN012 FM042300 VRB03KT P6SM SCT030 FM050200 00000KT P6SM BKN060

4,000以上の空港の気象観測と天気予報(METAR報とTAF報)

利用可能な観測所は地図上に黄色い丸と赤い丸で示す。

丸の上にカーソルを重ねると観測所名を参照できる。

次にクリックすると気象観測と天気予報を参照できる。

マップの切り替え:黒色「×」印の緑ボタンをクリックして拡大、「-」印の緑ボタンをクリックして縮小、緑色の三角印をクリックして隣りの地図に切り替え


METAR-TAF: